createdAt,value
2018-05-29T00:01:57.224Z,31.13
2018-05-29T00:04:27.943Z,31.16
2018-05-29T00:06:58.253Z,31.15
2018-05-29T00:09:28.718Z,31.17
2018-05-29T00:12:00.322Z,31.08
2018-05-29T00:14:30.899Z,31.09
2018-05-29T00:17:01.387Z,31.13
2018-05-29T00:19:31.891Z,31.23
2018-05-29T00:22:02.364Z,31.18
2018-05-29T00:24:33.225Z,31.19
2018-05-29T00:27:03.657Z,31.09
2018-05-29T00:29:34.167Z,31.14
2018-05-29T00:32:04.643Z,31.22
2018-05-29T00:34:34.968Z,31.11
2018-05-29T00:37:06.777Z,31.12
2018-05-29T00:39:37.394Z,31.07
2018-05-29T00:42:07.879Z,30.95
2018-05-29T00:44:38.678Z,30.97
2018-05-29T00:47:09.308Z,31.00
2018-05-29T00:49:39.869Z,30.81
2018-05-29T00:52:10.397Z,30.85
2018-05-29T00:54:40.641Z,30.96
2018-05-29T00:57:11.290Z,30.88
2018-05-29T00:59:41.914Z,30.88
2018-05-29T01:02:12.491Z,30.82
2018-05-29T01:04:43.086Z,30.79
2018-05-29T01:07:13.662Z,30.87
2018-05-29T01:09:46.610Z,30.87
2018-05-29T01:12:18.148Z,30.83
2018-05-29T01:14:48.659Z,30.76
2018-05-29T01:17:22.822Z,30.80
2018-05-29T01:19:53.294Z,30.71
2018-05-29T01:22:23.790Z,30.71
2018-05-29T01:24:54.290Z,30.79
2018-05-29T01:27:24.618Z,30.77
2018-05-29T01:29:55.366Z,30.62
2018-05-29T01:32:26.246Z,30.58
2018-05-29T01:34:56.707Z,30.59
2018-05-29T01:37:28.938Z,30.56
2018-05-29T01:39:59.522Z,30.46
2018-05-29T01:42:38.163Z,30.42
2018-05-29T01:45:08.934Z,30.41
2018-05-29T01:47:39.433Z,30.35
2018-05-29T01:50:11.305Z,30.39
2018-05-29T01:52:41.586Z,30.43
2018-05-29T01:55:12.054Z,30.54
2018-05-29T01:57:42.526Z,30.52
2018-05-29T02:00:14.591Z,30.43
2018-05-29T02:02:45.389Z,30.37
2018-05-29T02:05:15.893Z,30.30
2018-05-29T02:07:46.233Z,30.25
2018-05-29T02:10:17.227Z,30.13
2018-05-29T02:12:47.499Z,30.17
2018-05-29T02:15:17.751Z,30.15
2018-05-29T02:17:48.281Z,30.13
2018-05-29T02:20:18.838Z,30.02
2018-05-29T02:22:49.491Z,29.98
2018-05-29T02:25:20.085Z,30.00
2018-05-29T02:27:51.164Z,30.03
2018-05-29T02:30:21.691Z,30.13
2018-05-29T02:32:52.632Z,30.03
2018-05-29T02:35:23.654Z,30.04
2018-05-29T02:37:54.482Z,30.01
2018-05-29T02:40:24.733Z,29.83
2018-05-29T02:42:55.183Z,29.80
2018-05-29T02:45:25.721Z,29.83
2018-05-29T02:47:57.502Z,29.80
2018-05-29T02:50:27.783Z,29.80
2018-05-29T02:52:58.334Z,29.85
2018-05-29T02:55:29.205Z,29.95
2018-05-29T02:57:59.763Z,29.97
2018-05-29T03:00:30.237Z,30.01
2018-05-29T03:03:00.836Z,29.92
2018-05-29T03:05:31.378Z,29.86
2018-05-29T03:08:02.446Z,29.82
2018-05-29T03:10:33.110Z,29.81
2018-05-29T03:13:03.650Z,29.74
2018-05-29T03:15:34.526Z,29.70
2018-05-29T03:18:05.098Z,29.74
2018-05-29T03:20:35.557Z,29.75
2018-05-29T03:23:05.861Z,29.68
2018-05-29T03:25:36.137Z,29.73
2018-05-29T03:28:09.000Z,29.70
2018-05-29T03:30:39.585Z,29.70
2018-05-29T03:33:10.282Z,29.72
2018-05-29T03:35:40.805Z,29.74
2018-05-29T03:38:11.407Z,29.78
2018-05-29T03:40:42.173Z,29.79
2018-05-29T03:43:12.725Z,29.86
2018-05-29T03:45:43.240Z,29.90
2018-05-29T03:48:13.778Z,29.84
2018-05-29T03:50:44.268Z,29.87
2018-05-29T03:53:14.838Z,30.01
2018-05-29T03:55:45.409Z,30.14
2018-05-29T03:58:15.654Z,30.17
2018-05-29T04:00:46.562Z,30.24
2018-05-29T04:03:17.078Z,30.32
2018-05-29T04:05:47.611Z,30.49
2018-05-29T04:08:18.103Z,30.74
2018-05-29T04:10:48.438Z,31.02
2018-05-29T04:13:19.007Z,31.27
2018-05-29T04:15:49.589Z,31.61
2018-05-29T04:18:20.428Z,31.80
2018-05-29T04:20:50.987Z,31.99
2018-05-29T04:23:21.585Z,32.13
2018-05-29T04:25:52.648Z,32.39
2018-05-29T04:28:23.152Z,32.62
2018-05-29T04:30:53.759Z,32.92
2018-05-29T04:33:24.797Z,33.10
2018-05-29T04:35:55.344Z,33.21
2018-05-29T04:38:25.872Z,33.33
2018-05-29T04:40:56.361Z,33.61
2018-05-29T04:43:26.922Z,33.88
2018-05-29T04:45:57.743Z,34.21
2018-05-29T04:48:28.272Z,34.51
2018-05-29T04:50:58.750Z,34.65
2018-05-29T04:53:29.341Z,34.65
2018-05-29T04:55:59.907Z,34.89
2018-05-29T04:58:31.248Z,35.13
2018-05-29T05:01:01.754Z,35.41
2018-05-29T05:03:32.448Z,35.30
2018-05-29T05:06:03.274Z,35.07
2018-05-29T05:08:33.878Z,35.23
2018-05-29T05:11:04.438Z,35.55
2018-05-29T05:13:34.955Z,35.41
2018-05-29T05:16:05.295Z,35.34
2018-05-29T05:18:36.103Z,35.35
2018-05-29T05:21:06.673Z,35.39
2018-05-29T05:23:37.306Z,35.85
2018-05-29T05:26:08.282Z,35.48
2018-05-29T05:28:38.601Z,35.13
2018-05-29T05:31:09.190Z,35.03
2018-05-29T05:33:39.806Z,35.18
2018-05-29T05:36:10.433Z,35.42
2018-05-29T05:38:41.375Z,35.54
2018-05-29T05:41:11.878Z,35.63
2018-05-29T05:43:43.005Z,35.70
2018-05-29T05:46:13.646Z,36.01
2018-05-29T05:48:44.231Z,36.31
2018-05-29T05:51:16.229Z,36.39
2018-05-29T05:53:46.773Z,36.05
2018-05-29T05:56:17.563Z,35.65
2018-05-29T05:58:48.497Z,35.14
2018-05-29T06:01:19.078Z,34.89
2018-05-29T06:03:49.644Z,34.79
2018-05-29T06:06:20.695Z,34.82
2018-05-29T06:08:51.194Z,35.16
2018-05-29T06:11:22.074Z,35.67
2018-05-29T06:13:52.680Z,36.12
2018-05-29T06:16:23.117Z,36.87
2018-05-29T06:18:53.780Z,37.15
2018-05-29T06:21:25.330Z,37.50
2018-05-29T06:23:56.282Z,37.56
2018-05-29T06:26:26.819Z,37.59
2018-05-29T06:28:57.530Z,37.58
2018-05-29T06:31:28.738Z,37.84
2018-05-29T06:33:59.315Z,38.31
2018-05-29T06:36:34.207Z,38.37
2018-05-29T06:39:05.255Z,38.45
2018-05-29T06:41:35.659Z,38.48
2018-05-29T06:44:06.256Z,39.09
2018-05-29T06:46:36.691Z,39.05
2018-05-29T06:49:07.799Z,38.83
2018-05-29T06:51:38.434Z,38.94
2018-05-29T06:54:09.366Z,38.81
2018-05-29T06:56:40.425Z,38.50
2018-05-29T06:59:11.073Z,38.43
2018-05-29T07:01:42.450Z,37.81
2018-05-29T07:04:13.295Z,37.69
2018-05-29T07:06:43.830Z,38.25
2018-05-29T07:09:23.110Z,38.82
2018-05-29T07:11:53.411Z,39.59
2018-05-29T07:14:24.082Z,39.62
2018-05-29T07:16:54.613Z,40.18
2018-05-29T07:19:25.111Z,40.44
2018-05-29T07:21:55.618Z,40.39
2018-05-29T07:24:28.098Z,40.44
2018-05-29T07:27:00.087Z,40.44
2018-05-29T07:29:31.814Z,40.26
2018-05-29T07:32:02.539Z,40.14
2018-05-29T07:34:35.583Z,39.89
2018-05-29T07:37:06.087Z,39.87
2018-05-29T07:39:36.796Z,39.80
2018-05-29T07:42:07.906Z,39.82
2018-05-29T07:44:38.526Z,39.54
2018-05-29T07:47:09.138Z,39.83
2018-05-29T07:49:40.108Z,40.33
2018-05-29T07:52:10.729Z,40.66
2018-05-29T07:54:41.357Z,40.16
2018-05-29T07:57:12.228Z,39.68
2018-05-29T07:59:42.826Z,39.44
2018-05-29T08:02:14.654Z,39.88
2018-05-29T08:04:45.422Z,40.78
2018-05-29T08:07:16.101Z,41.27
2018-05-29T08:09:47.213Z,41.85
2018-05-29T08:12:17.594Z,42.26
2018-05-29T08:14:48.176Z,42.76
2018-05-29T08:17:19.091Z,43.29
2018-05-29T08:19:50.150Z,43.63
2018-05-29T08:22:20.503Z,43.51
2018-05-29T08:24:51.143Z,43.51
2018-05-29T08:27:21.692Z,43.63
2018-05-29T08:29:52.604Z,43.68
2018-05-29T08:32:23.159Z,43.77
2018-05-29T08:34:53.674Z,43.89
2018-05-29T08:37:24.297Z,43.99
2018-05-29T08:39:54.629Z,43.93
2018-05-29T08:42:25.526Z,43.90
2018-05-29T08:44:56.030Z,43.67
2018-05-29T08:47:26.572Z,43.72
2018-05-29T08:49:57.187Z,43.44
2018-05-29T08:52:27.781Z,43.17
2018-05-29T08:54:58.665Z,43.16
2018-05-29T08:57:29.242Z,42.97
2018-05-29T08:59:59.862Z,42.93
2018-05-29T09:02:30.407Z,43.22
2018-05-29T09:05:01.036Z,42.93
2018-05-29T09:07:31.896Z,43.11
2018-05-29T09:10:02.570Z,43.24
2018-05-29T09:12:33.075Z,42.99
2018-05-29T09:15:08.585Z,42.99
2018-05-29T09:17:39.508Z,43.15
2018-05-29T09:20:10.363Z,43.02
2018-05-29T09:22:40.624Z,42.73
2018-05-29T09:25:11.209Z,42.80
2018-05-29T09:27:42.097Z,42.93
2018-05-29T09:30:14.019Z,42.72
2018-05-29T09:32:44.566Z,42.44
2018-05-29T09:35:15.543Z,42.30
2018-05-29T09:37:46.211Z,42.28
2018-05-29T09:40:16.853Z,42.35
2018-05-29T09:42:47.637Z,42.13
2018-05-29T09:45:18.194Z,41.71
2018-05-29T09:47:49.002Z,41.67
2018-05-29T09:50:21.964Z,42.12
2018-05-29T09:52:52.505Z,42.29
2018-05-29T09:55:23.343Z,42.61
2018-05-29T09:57:53.696Z,42.77
2018-05-29T10:00:28.262Z,43.10
2018-05-29T10:02:59.158Z,43.44
2018-05-29T10:05:33.142Z,43.03
2018-05-29T10:08:03.991Z,42.55
2018-05-29T10:10:35.346Z,42.43
2018-05-29T10:13:05.917Z,42.40
2018-05-29T10:15:37.021Z,42.43
2018-05-29T10:18:07.567Z,42.39
2018-05-29T10:20:38.450Z,42.64
2018-05-29T10:23:09.112Z,43.24
2018-05-29T10:25:39.727Z,43.33
2018-05-29T10:28:10.377Z,42.65
2018-05-29T10:30:40.918Z,42.12
2018-05-29T10:33:12.829Z,42.12
2018-05-29T10:35:43.591Z,42.03
2018-05-29T10:38:14.362Z,42.06
2018-05-29T10:40:46.350Z,42.05
2018-05-29T10:43:16.881Z,42.12
2018-05-29T10:45:47.253Z,42.29
2018-05-29T10:48:17.850Z,42.28
2018-05-29T10:50:48.445Z,42.30
2018-05-29T10:53:19.583Z,41.94
2018-05-29T10:55:51.223Z,42.15
2018-05-29T10:58:21.810Z,42.30
2018-05-29T11:00:53.463Z,42.24
2018-05-29T11:03:24.416Z,41.82
2018-05-29T11:05:55.008Z,41.71
2018-05-29T11:08:25.545Z,42.06
2018-05-29T11:11:01.703Z,41.91
2018-05-29T11:13:33.745Z,41.72
2018-05-29T11:16:04.774Z,41.85
2018-05-29T11:18:36.078Z,42.41
2018-05-29T11:21:06.803Z,42.61
2018-05-29T11:23:37.589Z,42.49
2018-05-29T11:26:08.836Z,42.64
2018-05-29T11:28:41.331Z,42.63
2018-05-29T11:31:13.223Z,42.15
2018-05-29T11:33:44.525Z,42.01
2018-05-29T11:36:15.877Z,41.58
2018-05-29T11:38:47.882Z,41.01
2018-05-29T11:41:18.974Z,40.83
2018-05-29T11:43:49.503Z,40.68
2018-05-29T11:46:21.086Z,40.87
2018-05-29T11:48:51.634Z,40.64
2018-05-29T11:51:22.889Z,40.26
2018-05-29T11:53:55.827Z,39.54
2018-05-29T11:56:26.361Z,39.52
2018-05-29T11:58:56.905Z,39.27
2018-05-29T12:01:27.301Z,38.99
2018-05-29T12:03:57.807Z,39.04
2018-05-29T12:06:28.735Z,39.07
2018-05-29T12:08:59.298Z,38.92
2018-05-29T12:11:30.087Z,38.82
2018-05-29T12:14:00.672Z,38.69
2018-05-29T12:16:32.106Z,38.53
2018-05-29T12:19:04.087Z,38.46
2018-05-29T12:21:34.722Z,38.54
2018-05-29T12:24:05.365Z,38.84
2018-05-29T12:26:35.727Z,38.73
2018-05-29T12:29:06.099Z,38.53
2018-05-29T12:31:37.033Z,38.52
2018-05-29T12:34:07.344Z,38.40
2018-05-29T12:36:37.891Z,38.63
2018-05-29T12:39:09.114Z,38.91
2018-05-29T12:41:39.728Z,39.19
2018-05-29T12:44:10.364Z,39.57
2018-05-29T12:46:41.036Z,40.29
2018-05-29T12:49:11.694Z,40.64
2018-05-29T12:51:42.689Z,40.59
2018-05-29T12:54:13.477Z,40.26
2018-05-29T12:56:43.805Z,40.53
2018-05-29T12:59:15.031Z,40.44
2018-05-29T13:01:45.748Z,39.79
2018-05-29T13:04:16.114Z,39.24
2018-05-29T13:06:46.436Z,38.98
2018-05-29T13:09:17.546Z,38.90
2018-05-29T13:11:48.256Z,38.72
2018-05-29T13:14:18.863Z,38.63
2018-05-29T13:16:49.131Z,38.42
2018-05-29T13:19:19.812Z,38.42
2018-05-29T13:21:50.339Z,38.44
2018-05-29T13:24:21.406Z,38.60
2018-05-29T13:26:51.955Z,39.01
2018-05-29T13:29:22.246Z,38.88
2018-05-29T13:31:52.829Z,38.91
2018-05-29T13:36:51.347Z,39.43
2018-05-29T13:39:21.687Z,39.69
2018-05-29T13:41:52.215Z,39.87
2018-05-29T13:44:23.051Z,39.79
2018-05-29T13:46:53.506Z,39.30
2018-05-29T13:49:23.899Z,38.72
2018-05-29T13:51:54.535Z,38.68
2018-05-29T13:54:25.469Z,39.07
2018-05-29T13:56:56.306Z,38.78
2018-05-29T13:59:26.909Z,38.54
2018-05-29T14:01:57.166Z,38.43
2018-05-29T14:04:27.480Z,38.02
2018-05-29T14:06:58.075Z,37.80
2018-05-29T14:09:28.634Z,37.99
2018-05-29T14:14:36.269Z,37.34
2018-05-29T14:17:06.591Z,36.94
2018-05-29T14:19:38.456Z,37.17
2018-05-29T14:22:08.655Z,37.51
2018-05-29T14:24:38.945Z,37.87
2018-05-29T14:27:09.486Z,37.87
2018-05-29T14:29:41.398Z,37.56
2018-05-29T14:32:11.767Z,38.34
2018-05-29T14:34:42.458Z,38.76
2018-05-29T14:37:12.705Z,38.67
2018-05-29T14:39:43.013Z,38.86
2018-05-29T14:42:13.789Z,39.05
2018-05-29T14:44:45.157Z,39.15
2018-05-29T14:47:15.438Z,39.00
2018-05-29T14:49:45.933Z,38.42
2018-05-29T14:52:16.424Z,37.81
2018-05-29T14:54:48.121Z,37.08
2018-05-29T14:57:18.584Z,36.57
2018-05-29T14:59:50.068Z,35.74
2018-05-29T15:02:20.836Z,35.88
2018-05-29T15:04:51.374Z,35.90
2018-05-29T15:07:21.637Z,36.28
2018-05-29T15:09:51.974Z,36.03
2018-05-29T15:12:22.480Z,35.86
2018-05-29T15:14:53.360Z,35.63
2018-05-29T15:17:23.788Z,35.64
2018-05-29T15:19:54.361Z,35.67
2018-05-29T15:22:24.721Z,35.33
2018-05-29T15:24:55.030Z,34.74
2018-05-29T15:27:25.988Z,34.84
2018-05-29T15:29:56.178Z,34.82
2018-05-29T15:32:26.482Z,34.82
2018-05-29T15:34:56.783Z,34.95
2018-05-29T15:37:27.033Z,34.87
2018-05-29T15:39:58.982Z,34.63
2018-05-29T15:42:29.268Z,34.50
2018-05-29T15:44:59.917Z,34.64
2018-05-29T15:47:30.167Z,34.85
2018-05-29T15:50:00.459Z,34.71
2018-05-29T15:52:31.063Z,34.28
2018-05-29T15:55:01.475Z,34.06
2018-05-29T15:57:32.026Z,34.19
2018-05-29T16:00:04.390Z,34.46
2018-05-29T16:02:34.679Z,34.30
2018-05-29T16:05:04.887Z,34.30
2018-05-29T16:07:40.721Z,33.99
2018-05-29T16:10:11.029Z,34.16
2018-05-29T16:12:41.979Z,34.56
2018-05-29T16:15:14.211Z,34.51
2018-05-29T16:17:45.466Z,34.47
2018-05-29T16:20:17.177Z,34.26
2018-05-29T16:22:48.283Z,34.44
2018-05-29T16:25:19.299Z,34.23
2018-05-29T16:27:50.449Z,34.06
2018-05-29T16:30:20.694Z,33.67
2018-05-29T16:32:51.245Z,33.57
2018-05-29T16:35:21.715Z,33.28
2018-05-29T16:37:51.867Z,33.52
2018-05-29T16:40:22.617Z,33.57
2018-05-29T16:42:52.840Z,33.44
2018-05-29T16:45:23.097Z,33.47
2018-05-29T16:47:53.493Z,34.01
2018-05-29T16:50:24.271Z,34.66
2018-05-29T16:52:54.808Z,35.22
2018-05-29T16:55:25.036Z,35.35
2018-05-29T16:57:55.674Z,35.19
2018-05-29T17:00:26.000Z,34.64
2018-05-29T17:02:56.262Z,34.37
2018-05-29T17:05:26.956Z,34.51
2018-05-29T17:07:57.191Z,34.81
2018-05-29T17:10:27.997Z,34.92
2018-05-29T17:12:58.281Z,35.36
2018-05-29T17:15:29.049Z,35.35
2018-05-29T17:18:00.091Z,35.30
2018-05-29T17:20:30.652Z,35.28
2018-05-29T17:23:00.908Z,35.36
2018-05-29T17:25:31.881Z,35.35
2018-05-29T17:28:02.197Z,35.39
2018-05-29T17:30:32.710Z,35.39
2018-05-29T17:33:02.914Z,35.39
2018-05-29T17:35:33.135Z,35.52
2018-05-29T17:38:03.451Z,35.51
2018-05-29T17:40:33.658Z,35.23
2018-05-29T17:43:04.363Z,34.89
2018-05-29T17:45:34.550Z,35.01
2018-05-29T17:48:04.919Z,35.27
2018-05-29T17:50:35.455Z,35.52
2018-05-29T17:53:05.738Z,35.64
2018-05-29T17:55:36.014Z,35.87
2018-05-29T17:58:06.570Z,35.94
2018-05-29T18:00:36.745Z,36.05
2018-05-29T18:03:07.033Z,35.65
2018-05-29T18:05:37.319Z,35.48
2018-05-29T18:08:07.521Z,35.53
2018-05-29T18:10:38.063Z,35.63
2018-05-29T18:13:08.354Z,35.66
2018-05-29T18:15:38.534Z,35.49
2018-05-29T18:18:08.813Z,35.44
2018-05-29T18:20:38.978Z,35.41
2018-05-29T18:23:09.530Z,35.26
2018-05-29T18:25:39.794Z,35.14
2018-05-29T18:28:09.958Z,34.97
2018-05-29T18:30:40.435Z,35.27
2018-05-29T18:33:10.681Z,34.93
2018-05-29T18:35:40.860Z,34.66
2018-05-29T18:38:11.148Z,34.38
2018-05-29T18:40:41.626Z,34.59
2018-05-29T18:43:12.232Z,34.53
2018-05-29T18:45:42.738Z,34.53
2018-05-29T18:48:12.930Z,34.41
2018-05-29T18:50:44.192Z,34.17
2018-05-29T18:53:14.395Z,34.12
2018-05-29T18:55:44.580Z,34.23
2018-05-29T18:58:14.781Z,34.27
2018-05-29T19:00:45.097Z,34.42
2018-05-29T19:03:17.382Z,34.64
2018-05-29T19:05:47.583Z,34.36
2018-05-29T19:08:17.773Z,34.02
2018-05-29T19:10:47.950Z,33.86
2018-05-29T19:13:18.247Z,33.68
2018-05-29T19:15:50.627Z,33.49
2018-05-29T19:18:22.695Z,33.48
2018-05-29T19:20:53.810Z,33.82
2018-05-29T19:23:24.102Z,33.66
2018-05-29T19:25:55.421Z,33.27
2018-05-29T19:28:25.962Z,33.09
2018-05-29T19:30:56.183Z,33.29
2018-05-29T19:33:28.361Z,32.96
2018-05-29T19:35:59.960Z,32.95
2018-05-29T19:38:32.376Z,32.95
2018-05-29T19:41:02.953Z,32.80
2018-05-29T19:43:35.062Z,32.60
2018-05-29T19:46:07.115Z,32.56
2018-05-29T19:48:37.622Z,32.46
2018-05-29T19:51:07.976Z,32.22
2018-05-29T19:53:38.362Z,32.21
2018-05-29T19:56:08.633Z,32.03
2018-05-29T19:58:38.923Z,31.96
2018-05-29T20:01:10.690Z,31.84
2018-05-29T20:03:41.045Z,31.76
2018-05-29T20:06:11.265Z,31.57
2018-05-29T20:08:41.781Z,31.39
2018-05-29T20:11:12.079Z,31.24
2018-05-29T20:13:42.339Z,31.36
2018-05-29T20:16:12.591Z,31.24
2018-05-29T20:18:42.887Z,31.19
2018-05-29T20:21:13.954Z,31.08
2018-05-29T20:23:45.119Z,31.08
2018-05-29T20:26:15.424Z,30.92
2018-05-29T20:28:45.576Z,30.92
2018-05-29T20:31:16.155Z,30.85
2018-05-29T20:33:46.914Z,30.56
2018-05-29T20:36:18.289Z,30.34
2018-05-29T20:38:48.468Z,30.39
2018-05-29T20:41:20.090Z,30.32
2018-05-29T20:43:51.228Z,30.24
2018-05-29T20:46:21.637Z,30.18
2018-05-29T20:48:52.349Z,30.01
2018-05-29T20:51:22.514Z,29.87
2018-05-29T20:53:54.043Z,29.74
2018-05-29T20:56:24.277Z,29.69
2018-05-29T20:58:55.194Z,29.61
2018-05-29T21:01:25.942Z,29.65
2018-05-29T21:03:56.108Z,29.67
2018-05-29T21:06:26.350Z,29.58
2018-05-29T21:08:56.535Z,29.50
2018-05-29T21:11:26.790Z,29.50
2018-05-29T21:13:58.315Z,29.45
2018-05-29T21:16:28.458Z,29.34
2018-05-29T21:18:59.854Z,29.20
2018-05-29T21:21:30.014Z,29.32
2018-05-29T21:24:01.087Z,29.24
2018-05-29T21:26:31.576Z,29.41
2018-05-29T21:29:01.761Z,29.49
2018-05-29T21:31:31.966Z,29.51
2018-05-29T21:34:03.517Z,29.30
2018-05-29T21:36:33.786Z,29.25
2018-05-29T21:39:04.239Z,29.16
2018-05-29T21:41:34.694Z,29.06
2018-05-29T21:44:04.943Z,28.96
2018-05-29T21:46:35.889Z,28.94
2018-05-29T21:49:06.206Z,29.00
2018-05-29T21:51:36.690Z,28.95
2018-05-29T21:54:06.882Z,28.88
2018-05-29T21:56:37.229Z,28.80
2018-05-29T21:59:07.731Z,28.68
2018-05-29T22:01:38.632Z,28.56
2018-05-29T22:04:08.836Z,28.48
2018-05-29T22:06:39.189Z,28.27
2018-05-29T22:09:09.639Z,28.26
2018-05-29T22:11:40.409Z,28.26
2018-05-29T22:14:10.697Z,28.32
2018-05-29T22:16:40.950Z,28.22
2018-05-29T22:19:11.612Z,28.11
2018-05-29T22:21:41.900Z,28.23
2018-05-29T22:24:12.316Z,28.13
2018-05-29T22:26:42.612Z,28.16
2018-05-29T22:29:12.877Z,28.38
2018-05-29T22:31:43.496Z,28.41
2018-05-29T22:34:13.745Z,28.19
2018-05-29T22:36:44.064Z,28.35
2018-05-29T22:39:14.644Z,28.40
2018-05-29T22:41:45.424Z,28.30
2018-05-29T22:44:18.610Z,28.23
2018-05-29T22:46:49.067Z,28.52
2018-05-29T22:49:19.865Z,28.57
2018-05-29T22:51:50.712Z,28.62
2018-05-29T22:54:21.097Z,28.56
2018-05-29T22:56:51.369Z,28.35
2018-05-29T22:59:23.433Z,28.29
2018-05-29T23:01:53.715Z,28.34
2018-05-29T23:04:24.604Z,28.31
2018-05-29T23:06:55.096Z,28.11
2018-05-29T23:09:25.648Z,28.27
2018-05-29T23:11:57.526Z,28.25
2018-05-29T23:14:28.196Z,28.08
2018-05-29T23:17:00.887Z,27.93
2018-05-29T23:19:31.571Z,27.92
2018-05-29T23:22:02.355Z,27.77
2018-05-29T23:24:32.744Z,27.83
2018-05-29T23:27:03.508Z,27.81
2018-05-29T23:29:35.525Z,27.66
2018-05-29T23:32:07.125Z,27.74
2018-05-29T23:34:37.771Z,27.73
2018-05-29T23:37:08.679Z,27.97
2018-05-29T23:39:39.321Z,27.91
2018-05-29T23:42:09.976Z,27.91
2018-05-29T23:44:41.021Z,27.92
2018-05-29T23:47:11.661Z,27.69
2018-05-29T23:49:42.636Z,27.63
2018-05-29T23:52:13.246Z,27.76
2018-05-29T23:54:43.984Z,27.86
2018-05-29T23:57:16.655Z,27.97
2018-05-29T23:59:47.189Z,27.97
